createdAt,value
2023-04-22T00:00:03.868Z,9.6
2023-04-22T00:10:06.246Z,7.3
2023-04-22T00:20:08.532Z,7
2023-04-22T00:30:10.819Z,8.4
2023-04-22T00:40:13.011Z,7.3
2023-04-22T00:50:15.224Z,10.9
2023-04-22T01:00:17.370Z,6.4
2023-04-22T01:10:19.511Z,11.4
2023-04-22T01:20:21.660Z,10.5
2023-04-22T01:30:23.736Z,7
2023-04-22T01:40:25.948Z,6.6
2023-04-22T01:50:28.016Z,6.6
2023-04-22T02:00:29.913Z,8.1
2023-04-22T02:10:31.948Z,5.4
2023-04-22T02:20:34.093Z,7.7
2023-04-22T02:30:36.070Z,7.3
2023-04-22T02:40:38.054Z,6.3
2023-04-22T02:50:40.109Z,4.2
2023-04-22T03:00:42.075Z,7.4
2023-04-22T03:10:43.994Z,7.5
2023-04-22T03:20:45.952Z,8.5
2023-04-22T03:30:47.990Z,5.3
2023-04-22T03:40:51.545Z,6.8
2023-04-22T03:50:51.795Z,4.8
2023-04-22T04:00:53.608Z,5.1
2023-04-22T04:10:55.522Z,6.3
2023-04-22T04:20:57.398Z,7.3
2023-04-22T04:30:59.171Z,4.5
2023-04-22T04:41:00.996Z,3.8
2023-04-22T04:51:02.749Z,3.8
2023-04-22T05:01:04.654Z,5.5
2023-04-22T05:11:06.383Z,5.8
2023-04-22T05:21:08.203Z,5.4
2023-04-22T05:31:10.026Z,6.5
2023-04-22T05:41:11.806Z,3.4
2023-04-22T05:51:13.548Z,4
2023-04-22T06:01:15.197Z,6.8
2023-04-22T06:11:17.044Z,4.9
2023-04-22T06:21:18.626Z,7.8
2023-04-22T06:31:21.111Z,6.3
2023-04-22T06:41:22.189Z,4.1
2023-04-22T06:51:23.931Z,6.7
2023-04-22T07:01:25.635Z,6.1
2023-04-22T07:11:27.442Z,7
2023-04-22T07:21:29.217Z,7.3
2023-04-22T07:31:31.145Z,6
2023-04-22T07:41:32.881Z,5
2023-04-22T07:51:34.630Z,4.7
2023-04-22T08:01:36.398Z,5.4
2023-04-22T08:11:38.193Z,4.9
2023-04-22T08:21:40.097Z,3.6
2023-04-22T08:31:41.906Z,5.5
2023-04-22T08:41:43.593Z,5.4
2023-04-22T08:51:45.291Z,5.3
2023-04-22T09:01:47.046Z,5.1
2023-04-22T09:11:48.671Z,3.9
2023-04-22T09:21:51.466Z,3.3
2023-04-22T09:31:52.064Z,4.7
2023-04-22T09:41:53.524Z,5.9
2023-04-22T09:51:55.148Z,3.6
2023-04-22T10:01:56.743Z,4.5
2023-04-22T10:11:58.293Z,3.4
2023-04-22T10:22:00.006Z,4.8
2023-04-22T10:32:01.662Z,4.6
2023-04-22T10:42:03.296Z,5.7
2023-04-22T10:45:47.707Z,5.7
2023-04-22T10:52:04.970Z,5.5
2023-04-22T11:02:06.783Z,6.8
2023-04-22T11:12:24.248Z,7.3
2023-04-22T11:22:10.042Z,5.6
2023-04-22T11:32:11.700Z,7.2
2023-04-22T11:42:13.530Z,8.2
2023-04-22T11:52:15.240Z,6.9
2023-04-22T12:02:17.069Z,5.3
2023-04-22T12:12:18.777Z,7.1
2023-04-22T12:22:20.669Z,8
2023-04-22T12:32:24.318Z,5.8
2023-04-22T12:42:24.362Z,10.1
2023-04-22T12:52:26.213Z,5.7
2023-04-22T13:02:28.298Z,7.8
2023-04-22T13:12:30.217Z,11.5
2023-04-22T13:22:32.152Z,9.5
2023-04-22T13:32:34.313Z,11.1
2023-04-22T13:42:36.311Z,7.8
2023-04-22T13:52:38.460Z,8.5
2023-04-22T14:02:40.584Z,6.2
2023-04-22T14:12:42.745Z,7.1
2023-04-22T14:22:44.901Z,9.8
2023-04-22T14:32:47.143Z,13.8
2023-04-22T14:42:49.291Z,9.2
2023-04-22T14:52:51.461Z,9.3
2023-04-22T15:02:53.735Z,10.5
2023-04-22T15:12:55.974Z,9.8
2023-04-22T15:22:58.306Z,8.4
2023-04-22T15:33:00.683Z,11.4
2023-04-22T15:43:02.994Z,10.7
2023-04-22T15:53:05.326Z,10.1
2023-04-22T16:03:07.866Z,8.9
2023-04-22T16:13:10.296Z,9.4
2023-04-22T16:23:12.758Z,12.5
2023-04-22T16:33:15.271Z,7.8
2023-04-22T16:43:17.820Z,8.6
2023-04-22T16:53:20.296Z,10.3
2023-04-22T17:03:22.940Z,12
2023-04-22T17:13:25.425Z,10.1
2023-04-22T17:23:27.967Z,12
2023-04-22T17:33:30.439Z,11.1
2023-04-22T17:43:32.999Z,9.5
2023-04-22T17:53:35.611Z,9.1
2023-04-22T18:03:38.389Z,10.7
2023-04-22T18:13:40.869Z,9.4
2023-04-22T18:23:43.572Z,8.9
2023-04-22T18:33:46.094Z,7.2
2023-04-22T18:43:48.673Z,8.6
2023-04-22T18:53:51.359Z,9.2
2023-04-22T19:03:53.945Z,7.2
2023-04-22T19:13:56.322Z,8.8
2023-04-22T19:23:58.942Z,8.2
2023-04-22T19:34:01.443Z,11.3
2023-04-22T19:44:03.866Z,8.6
2023-04-22T19:54:06.342Z,6.5
2023-04-22T20:04:08.885Z,7.4
2023-04-22T20:14:11.320Z,8.5
2023-04-22T20:24:13.635Z,8
2023-04-22T20:34:16.176Z,10
2023-04-22T20:44:18.294Z,7
2023-04-22T20:54:28.216Z,7
2023-04-22T21:04:22.836Z,7.6
2023-04-22T21:14:24.770Z,10.4
2023-04-22T21:24:26.631Z,12.7
2023-04-22T21:34:28.543Z,8.7
2023-04-22T21:44:30.591Z,9.7
2023-04-22T21:54:32.331Z,9.7
2023-04-22T22:04:34.291Z,12.7
2023-04-22T22:14:36.124Z,8.3
2023-04-22T22:24:38.166Z,10.9
2023-04-22T22:34:40.049Z,9.8
2023-04-22T22:44:41.919Z,11.1
2023-04-22T22:54:43.557Z,10.9
2023-04-22T23:14:46.981Z,7.4
2023-04-22T23:24:48.904Z,3.9
2023-04-22T23:34:50.521Z,5.6
2023-04-22T23:44:52.164Z,6.5
2023-04-22T23:54:53.999Z,6.3
